createdAt,value
2022-09-23T00:01:54.205Z,5.07
2022-09-23T00:03:59.516Z,5.60
2022-09-23T00:06:03.904Z,5.20
2022-09-23T00:08:08.340Z,5.10
2022-09-23T00:10:13.421Z,5.07
2022-09-23T00:12:15.344Z,4.65
2022-09-23T00:14:17.805Z,5.10
2022-09-23T00:16:30.527Z,5.15
2022-09-23T00:18:32.727Z,5.65
2022-09-23T00:20:36.385Z,5.20
2022-09-23T00:22:39.109Z,5.35
2022-09-23T00:24:41.969Z,5.82
2022-09-23T00:26:43.900Z,5.22
2022-09-23T00:28:46.480Z,5.60
2022-09-23T00:30:48.469Z,5.90
2022-09-23T00:32:53.087Z,5.20
2022-09-23T00:34:55.933Z,4.82
2022-09-23T00:36:57.733Z,5.25
2022-09-23T00:39:00.192Z,5.30
2022-09-23T00:41:08.116Z,5.53
2022-09-23T00:43:14.065Z,5.18
2022-09-23T00:45:17.166Z,5.38
2022-09-23T00:47:35.469Z,5.25
2022-09-23T00:49:37.363Z,5.80
2022-09-23T00:51:47.241Z,5.78
2022-09-23T00:53:51.864Z,4.78
2022-09-23T00:56:00.471Z,5.75
2022-09-23T00:58:12.507Z,4.82
2022-09-23T01:00:14.875Z,4.68
2022-09-23T01:02:21.244Z,4.95
2022-09-23T01:04:24.819Z,5.10
2022-09-23T01:06:29.496Z,4.30
2022-09-23T01:08:32.453Z,4.78
2022-09-23T01:11:15.464Z,4.63
2022-09-23T01:13:37.424Z,4.25
2022-09-23T01:15:50.557Z,4.38
2022-09-23T01:18:08.890Z,5.03
2022-09-23T01:20:29.316Z,4.80
2022-09-23T01:22:39.860Z,4.85
2022-09-23T01:24:46.825Z,4.72
2022-09-23T01:27:00.885Z,4.60
2022-09-23T01:29:48.369Z,4.43
2022-09-23T01:31:53.460Z,4.65
2022-09-23T01:34:12.105Z,4.25
2022-09-23T01:36:35.670Z,4.65
2022-09-23T01:38:51.617Z,4.82
2022-09-23T01:41:23.840Z,4.15
2022-09-23T01:43:40.630Z,4.28
2022-09-23T01:45:46.448Z,4.50
2022-09-23T01:47:55.164Z,4.43
2022-09-23T01:50:25.428Z,4.07
2022-09-23T01:52:39.089Z,4.18
2022-09-23T01:54:53.406Z,4.38
2022-09-23T01:57:04.476Z,4.30
2022-09-23T01:59:21.774Z,4.45
2022-09-23T02:01:42.761Z,4.20
2022-09-23T02:04:08.781Z,4.47
2022-09-23T02:06:29.741Z,4.57
2022-09-23T02:08:53.792Z,3.93
2022-09-23T02:11:00.760Z,3.95
2022-09-23T02:13:15.853Z,3.80
2022-09-23T02:15:32.835Z,3.28
2022-09-23T02:17:47.111Z,4.13
2022-09-23T02:19:54.766Z,4.00
2022-09-23T02:22:17.644Z,3.90
2022-09-23T02:24:29.932Z,4.18
2022-09-23T02:26:54.612Z,3.42
2022-09-23T02:29:08.939Z,3.70
2022-09-23T02:31:21.812Z,4.10
2022-09-23T02:33:49.513Z,3.38
2022-09-23T02:35:59.937Z,4.28
2022-09-23T02:38:23.263Z,3.80
2022-09-23T02:40:39.385Z,3.90
2022-09-23T02:43:04.889Z,3.35
2022-09-23T02:45:07.240Z,4.47
2022-09-23T02:47:10.743Z,4.43
2022-09-23T02:49:42.102Z,4.22
2022-09-23T02:51:45.671Z,3.67
2022-09-23T02:53:48.098Z,3.17
2022-09-23T02:55:51.985Z,3.72
2022-09-23T02:57:53.855Z,4.53
2022-09-23T02:59:56.161Z,3.47
2022-09-23T03:02:32.739Z,4.03
2022-09-23T03:04:43.526Z,3.60
2022-09-23T03:07:03.604Z,3.20
2022-09-23T03:10:04.734Z,3.80
2022-09-23T03:12:09.483Z,4.20
2022-09-23T03:14:25.794Z,5.18
2022-09-23T03:16:40.484Z,4.82
2022-09-23T03:18:51.967Z,4.90
2022-09-23T03:21:02.268Z,4.63
2022-09-23T03:23:09.288Z,5.38
2022-09-23T03:25:19.048Z,4.50
2022-09-23T03:27:27.916Z,4.72
2022-09-23T03:29:32.779Z,5.63
2022-09-23T03:31:36.567Z,6.10
2022-09-23T03:33:42.265Z,6.93
2022-09-23T03:36:13.538Z,6.18
2022-09-23T03:38:17.065Z,6.13
2022-09-23T03:40:29.929Z,6.68
2022-09-23T03:42:33.378Z,6.85
2022-09-23T03:44:39.281Z,6.85
2022-09-23T03:46:49.943Z,6.50
2022-09-23T03:48:51.931Z,7.00
2022-09-23T03:50:53.878Z,6.22
2022-09-23T03:52:56.057Z,7.10
2022-09-23T03:54:58.261Z,6.05
2022-09-23T03:57:03.236Z,5.72
2022-09-23T03:59:06.065Z,5.22
2022-09-23T04:01:08.017Z,5.70
2022-09-23T04:03:11.959Z,5.97
2022-09-23T04:05:14.490Z,5.00
2022-09-23T04:07:17.815Z,5.40
2022-09-23T04:09:19.688Z,5.43
2022-09-23T04:11:21.688Z,5.13
2022-09-23T04:13:23.496Z,4.85
2022-09-23T04:15:25.489Z,5.03
2022-09-23T04:17:27.376Z,4.82
2022-09-23T04:19:29.256Z,4.05
2022-09-23T04:21:33.339Z,4.35
2022-09-23T04:23:35.175Z,8.52
2022-09-23T04:25:43.961Z,8.07
2022-09-23T04:27:46.841Z,4.85
2022-09-23T04:29:49.686Z,5.10
2022-09-23T04:31:53.503Z,7.00
2022-09-23T04:33:55.625Z,7.70
2022-09-23T04:35:57.518Z,5.35
2022-09-23T04:37:59.434Z,4.55
2022-09-23T04:40:04.043Z,5.03
2022-09-23T04:42:06.114Z,4.80
2022-09-23T04:44:08.607Z,4.60
2022-09-23T04:46:13.773Z,5.22
2022-09-23T04:48:16.447Z,4.93
2022-09-23T04:50:18.697Z,4.50
2022-09-23T04:52:20.609Z,5.30
2022-09-23T04:54:22.485Z,5.25
2022-09-23T04:56:29.172Z,5.32
2022-09-23T04:58:31.202Z,5.82
2022-09-23T05:00:33.764Z,5.13
2022-09-23T05:02:36.875Z,5.70
2022-09-23T05:04:40.855Z,4.50
2022-09-23T05:06:45.396Z,4.88
2022-09-23T05:08:55.875Z,5.47
2022-09-23T05:11:04.982Z,6.15
2022-09-23T05:13:06.854Z,5.05
2022-09-23T05:15:08.995Z,5.45
2022-09-23T05:17:11.865Z,5.18
2022-09-23T05:19:15.122Z,5.30
2022-09-23T05:21:19.763Z,5.88
2022-09-23T05:23:26.129Z,5.80
2022-09-23T05:25:35.111Z,5.70
2022-09-23T05:27:42.664Z,5.55
2022-09-23T05:29:47.815Z,5.05
2022-09-23T05:31:49.834Z,5.80
2022-09-23T05:33:55.146Z,5.57
2022-09-23T05:35:57.040Z,5.43
2022-09-23T05:37:59.919Z,5.05
2022-09-23T05:40:02.482Z,5.93
2022-09-23T05:42:05.620Z,5.90
2022-09-23T05:44:07.593Z,6.72
2022-09-23T05:46:16.618Z,6.22
2022-09-23T05:48:19.577Z,5.38
2022-09-23T05:50:21.718Z,5.68
2022-09-23T05:52:24.803Z,6.75
2022-09-23T05:54:26.712Z,5.10
2022-09-23T05:56:28.894Z,7.57
2022-09-23T05:58:30.775Z,6.93
2022-09-23T06:00:32.628Z,5.32
2022-09-23T06:02:35.700Z,5.82
2022-09-23T06:04:40.047Z,5.60
2022-09-23T06:06:47.007Z,6.18
2022-09-23T06:08:48.990Z,6.72
2022-09-23T06:10:54.398Z,6.85
2022-09-23T06:12:57.626Z,7.43
2022-09-23T06:15:01.433Z,8.82
2022-09-23T06:17:05.837Z,8.95
2022-09-23T06:19:10.063Z,11.88
2022-09-23T06:21:15.176Z,9.32
2022-09-23T06:23:16.987Z,8.70
2022-09-23T06:25:19.725Z,8.95
2022-09-23T06:27:21.601Z,9.05
2022-09-23T06:29:23.645Z,8.32
2022-09-23T06:31:26.844Z,7.97
2022-09-23T06:33:36.852Z,9.27
2022-09-23T06:35:39.380Z,9.35
2022-09-23T06:37:42.481Z,10.48
2022-09-23T06:39:46.585Z,9.38
2022-09-23T06:41:48.579Z,10.95
2022-09-23T06:43:50.464Z,12.30
2022-09-23T06:46:04.328Z,8.85
2022-09-23T06:48:08.599Z,9.90
2022-09-23T06:50:12.833Z,10.18
2022-09-23T06:52:14.682Z,9.30
2022-09-23T06:54:17.598Z,10.32
2022-09-23T06:56:22.250Z,9.15
2022-09-23T06:58:24.064Z,11.05
2022-09-23T07:00:26.994Z,10.90
2022-09-23T07:02:29.005Z,11.02
2022-09-23T07:04:31.009Z,9.70
2022-09-23T07:06:33.926Z,7.95
2022-09-23T07:08:37.615Z,8.93
2022-09-23T07:10:39.503Z,7.32
2022-09-23T07:12:41.922Z,8.18
2022-09-23T07:14:44.288Z,7.95
2022-09-23T07:16:49.162Z,9.18
2022-09-23T07:18:52.242Z,9.40
2022-09-23T07:20:59.004Z,9.55
2022-09-23T07:23:00.856Z,9.70
2022-09-23T07:25:04.386Z,9.55
2022-09-23T07:27:06.271Z,9.90
2022-09-23T07:29:08.241Z,11.73
2022-09-23T07:31:20.873Z,10.38
2022-09-23T07:33:32.434Z,12.77
2022-09-23T07:35:39.726Z,11.50
2022-09-23T07:37:41.676Z,12.02
2022-09-23T07:39:44.703Z,14.57
2022-09-23T07:41:47.530Z,12.48
2022-09-23T07:43:55.739Z,16.77
2022-09-23T07:45:57.791Z,11.88
2022-09-23T07:48:03.790Z,10.25
2022-09-23T07:50:07.973Z,11.88
2022-09-23T07:52:10.046Z,11.57
2022-09-23T07:54:15.277Z,12.70
2022-09-23T07:56:21.019Z,12.73
2022-09-23T07:58:23.652Z,13.80
2022-09-23T08:00:25.571Z,15.43
2022-09-23T08:02:27.599Z,16.13
2022-09-23T08:04:31.334Z,13.18
2022-09-23T08:06:34.718Z,14.68
2022-09-23T08:08:40.571Z,15.73
2022-09-23T08:10:42.930Z,15.32
2022-09-23T08:12:46.657Z,12.45
2022-09-23T08:14:52.826Z,12.27
2022-09-23T08:16:55.745Z,12.43
2022-09-23T08:18:57.686Z,12.23
2022-09-23T08:21:00.667Z,11.73
2022-09-23T08:23:03.645Z,11.68
2022-09-23T08:25:08.372Z,11.82
2022-09-23T08:27:12.897Z,11.30
2022-09-23T08:29:22.937Z,10.90
2022-09-23T08:31:24.923Z,11.40
2022-09-23T08:33:26.929Z,12.30
2022-09-23T08:35:33.879Z,11.68
2022-09-23T08:37:36.785Z,11.43
2022-09-23T08:39:38.731Z,9.88
2022-09-23T08:41:57.489Z,10.68
2022-09-23T08:44:04.818Z,10.68
2022-09-23T08:46:13.633Z,9.32
2022-09-23T08:48:20.991Z,9.90
2022-09-23T08:50:28.998Z,8.70
2022-09-23T08:52:49.830Z,8.38
2022-09-23T08:54:55.308Z,8.50
2022-09-23T08:57:01.762Z,7.78
2022-09-23T08:59:15.032Z,8.32
2022-09-23T09:01:20.836Z,9.68
2022-09-23T09:03:38.777Z,7.47
2022-09-23T09:05:53.611Z,7.15
2022-09-23T09:08:00.615Z,7.70
2022-09-23T09:10:24.333Z,8.55
2022-09-23T09:12:44.526Z,5.35
2022-09-23T09:14:58.223Z,4.45
2022-09-23T09:17:24.852Z,5.72
2022-09-23T09:19:42.961Z,4.90
2022-09-23T09:21:48.021Z,3.40
2022-09-23T09:24:02.223Z,3.33
2022-09-23T09:26:06.588Z,3.67
2022-09-23T09:28:51.408Z,4.28
2022-09-23T09:30:58.087Z,3.70
2022-09-23T09:33:04.652Z,3.50
2022-09-23T09:35:40.988Z,3.72
2022-09-23T09:37:47.993Z,9.43
2022-09-23T09:39:50.916Z,5.25
2022-09-23T09:41:58.878Z,2.78
2022-09-23T09:44:03.766Z,2.67
2022-09-23T09:46:34.297Z,3.75
2022-09-23T09:48:38.566Z,4.63
2022-09-23T09:50:52.317Z,3.80
2022-09-23T09:53:16.120Z,4.60
2022-09-23T09:55:27.503Z,4.20
2022-09-23T09:57:39.519Z,2.42
2022-09-23T09:59:43.226Z,1.10
2022-09-23T10:01:46.401Z,1.30
2022-09-23T10:03:55.638Z,1.92
2022-09-23T10:06:18.735Z,3.75
2022-09-23T10:08:32.569Z,2.80
2022-09-23T10:10:38.454Z,2.60
2022-09-23T10:12:49.994Z,2.22
2022-09-23T10:17:06.775Z,1.33
2022-09-23T10:19:29.535Z,1.10
2022-09-23T10:21:37.266Z,1.10
2022-09-23T10:23:42.636Z,0.80
2022-09-23T10:26:00.329Z,1.67
2022-09-23T10:28:37.680Z,1.45
2022-09-23T10:30:39.744Z,1.33
2022-09-23T10:32:45.622Z,1.17
2022-09-23T10:35:04.905Z,1.65
2022-09-23T10:37:32.083Z,0.70
2022-09-23T10:39:52.649Z,0.70
2022-09-23T10:42:57.845Z,1.30
2022-09-23T10:45:28.176Z,0.90
2022-09-23T10:47:54.200Z,0.90
2022-09-23T10:50:03.965Z,0.80
2022-09-23T10:52:15.234Z,0.77
2022-09-23T10:54:38.701Z,0.90
2022-09-23T10:56:46.763Z,2.13
2022-09-23T10:59:14.885Z,0.80
2022-09-23T11:01:32.294Z,1.08
2022-09-23T11:03:57.597Z,1.30
2022-09-23T11:06:20.512Z,0.45
2022-09-23T11:08:34.483Z,1.17
2022-09-23T11:11:11.713Z,0.80
2022-09-23T11:13:40.792Z,0.95
2022-09-23T11:16:07.306Z,1.15
2022-09-23T11:18:29.423Z,1.35
2022-09-23T11:20:53.173Z,1.30
2022-09-23T11:23:32.488Z,0.90
2022-09-23T11:25:43.677Z,0.80
2022-09-23T11:28:04.073Z,1.20
2022-09-23T11:30:14.317Z,0.70
2022-09-23T11:32:40.484Z,3.42
2022-09-23T11:35:15.326Z,1.20
2022-09-23T11:37:40.313Z,2.08
2022-09-23T11:39:50.142Z,1.00
2022-09-23T11:41:56.632Z,0.98
2022-09-23T11:44:37.532Z,0.60
2022-09-23T11:46:51.117Z,0.80
2022-09-23T11:49:18.702Z,0.93
2022-09-23T11:51:38.207Z,1.10
2022-09-23T11:53:44.384Z,1.20
2022-09-23T11:55:58.386Z,0.80
2022-09-23T11:58:23.188Z,0.93
2022-09-23T12:00:34.530Z,0.88
2022-09-23T12:03:04.299Z,0.93
2022-09-23T12:05:20.363Z,0.77
2022-09-23T12:07:28.308Z,0.80
2022-09-23T12:09:58.657Z,0.70
2022-09-23T12:12:47.991Z,1.15
2022-09-23T12:15:17.076Z,1.02
2022-09-23T12:18:01.827Z,1.00
2022-09-23T12:20:16.310Z,0.88
2022-09-23T12:22:51.726Z,0.90
2022-09-23T12:25:16.335Z,1.05
2022-09-23T12:27:37.614Z,0.80
2022-09-23T12:29:40.984Z,1.00
2022-09-23T12:31:46.701Z,1.00
2022-09-23T12:33:52.494Z,0.98
2022-09-23T12:36:02.423Z,0.77
2022-09-23T12:38:20.325Z,0.70
2022-09-23T12:40:43.981Z,0.88
2022-09-23T12:42:48.121Z,1.13
2022-09-23T12:44:50.815Z,1.20
2022-09-23T12:47:12.648Z,0.93
2022-09-23T12:49:29.397Z,1.33
2022-09-23T12:51:34.843Z,1.08
2022-09-23T12:53:40.975Z,1.30
2022-09-23T12:55:46.571Z,1.50
2022-09-23T12:57:50.751Z,1.48
2022-09-23T12:59:55.928Z,1.20
2022-09-23T13:02:45.564Z,0.82
2022-09-23T13:05:17.816Z,1.00
2022-09-23T13:07:27.319Z,1.70
2022-09-23T13:09:32.107Z,1.20
2022-09-23T13:11:37.338Z,1.00
2022-09-23T13:13:44.832Z,1.10
2022-09-23T13:15:48.579Z,1.20
2022-09-23T13:17:50.542Z,0.80
2022-09-23T13:20:05.438Z,0.93
2022-09-23T13:22:11.017Z,1.23
2022-09-23T13:24:25.186Z,0.88
2022-09-23T13:26:32.513Z,1.20
2022-09-23T13:28:58.752Z,1.27
2022-09-23T13:31:06.426Z,1.08
2022-09-23T13:33:16.840Z,1.15
2022-09-23T13:35:30.234Z,0.85
2022-09-23T13:37:42.987Z,1.25
2022-09-23T13:39:44.838Z,1.20
2022-09-23T13:41:47.990Z,1.10
2022-09-23T13:43:55.541Z,1.25
2022-09-23T13:45:58.422Z,1.33
2022-09-23T13:48:13.840Z,1.25
2022-09-23T13:50:25.041Z,1.08
2022-09-23T13:52:31.769Z,0.90
2022-09-23T13:54:46.555Z,0.82
2022-09-23T13:56:51.081Z,1.20
2022-09-23T13:58:53.278Z,0.80
2022-09-23T14:00:56.001Z,1.15
2022-09-23T14:02:57.953Z,1.13
2022-09-23T14:05:12.672Z,1.00
2022-09-23T14:07:17.017Z,1.10
2022-09-23T14:09:28.421Z,1.00
2022-09-23T14:11:33.787Z,0.95
2022-09-23T14:13:42.964Z,2.17
2022-09-23T14:15:46.771Z,1.60
2022-09-23T14:18:00.602Z,1.30
2022-09-23T14:20:03.017Z,1.10
2022-09-23T14:22:08.135Z,1.00
2022-09-23T14:24:20.743Z,1.10
2022-09-23T14:26:24.335Z,0.90
2022-09-23T14:28:28.231Z,0.98
2022-09-23T14:30:31.067Z,0.75
2022-09-23T14:32:34.146Z,1.00
2022-09-23T14:34:49.410Z,1.52
2022-09-23T14:37:10.063Z,0.90
2022-09-23T14:39:12.945Z,0.95
2022-09-23T14:41:26.504Z,1.10
2022-09-23T14:43:30.519Z,1.27
2022-09-23T14:45:38.251Z,1.30
2022-09-23T14:47:47.064Z,1.17
2022-09-23T14:50:10.748Z,1.10
2022-09-23T14:52:13.841Z,1.10
2022-09-23T14:54:37.564Z,1.40
2022-09-23T14:56:45.492Z,1.80
2022-09-23T14:58:58.930Z,1.38
2022-09-23T15:01:04.540Z,2.03
2022-09-23T15:03:17.135Z,1.80
2022-09-23T15:05:31.712Z,2.53
2022-09-23T15:07:36.237Z,2.10
2022-09-23T15:09:42.450Z,1.00
2022-09-23T15:11:44.380Z,1.60
2022-09-23T15:13:51.158Z,1.45
2022-09-23T15:15:55.581Z,1.73
2022-09-23T15:18:14.387Z,1.60
2022-09-23T15:20:16.204Z,3.10
2022-09-23T15:22:18.394Z,3.50
2022-09-23T15:24:36.121Z,3.00
2022-09-23T15:26:48.715Z,2.20
2022-09-23T15:28:56.043Z,3.13
2022-09-23T15:30:59.002Z,3.65
2022-09-23T15:33:01.144Z,4.85
2022-09-23T15:35:04.230Z,4.05
2022-09-23T15:37:06.143Z,3.80
2022-09-23T15:39:11.134Z,6.25
2022-09-23T15:41:17.493Z,6.38
2022-09-23T15:43:22.763Z,6.88
2022-09-23T15:45:35.855Z,8.00
2022-09-23T15:47:38.215Z,12.07
2022-09-23T15:49:40.286Z,16.30
2022-09-23T15:51:43.214Z,8.32
2022-09-23T15:53:45.091Z,4.90
2022-09-23T15:55:47.071Z,3.40
2022-09-23T15:57:52.289Z,2.83
2022-09-23T15:59:58.529Z,3.65
2022-09-23T16:02:06.927Z,9.27
2022-09-23T16:04:10.480Z,3.92
2022-09-23T16:06:14.037Z,9.20
2022-09-23T16:08:19.874Z,9.98
2022-09-23T16:10:22.951Z,11.85
2022-09-23T16:12:27.226Z,18.40
2022-09-23T16:14:29.064Z,21.65
2022-09-23T16:16:32.109Z,19.67
2022-09-23T16:18:35.064Z,24.13
2022-09-23T16:20:42.137Z,18.05
2022-09-23T16:22:56.312Z,15.35
2022-09-23T16:24:58.233Z,15.25
2022-09-23T16:27:04.984Z,21.95
2022-09-23T16:29:07.042Z,14.93
2022-09-23T16:31:10.873Z,18.65
2022-09-23T16:33:12.767Z,13.07
2022-09-23T16:35:16.814Z,17.08
2022-09-23T16:37:19.736Z,16.73
2022-09-23T16:39:23.070Z,9.43
2022-09-23T16:41:27.068Z,8.90
2022-09-23T16:43:35.134Z,13.57
2022-09-23T16:45:39.477Z,22.33
2022-09-23T16:47:49.972Z,14.40
2022-09-23T16:49:51.829Z,13.90
2022-09-23T16:51:54.771Z,11.73
2022-09-23T16:53:58.345Z,9.13
2022-09-23T16:56:07.883Z,7.15
2022-09-23T16:58:09.817Z,8.93
2022-09-23T17:00:34.099Z,6.90
2022-09-23T17:02:56.695Z,6.20
2022-09-23T17:04:58.641Z,6.40
2022-09-23T17:07:00.491Z,10.82
2022-09-23T17:09:02.838Z,7.57
2022-09-23T17:11:05.539Z,8.02
2022-09-23T17:13:11.252Z,8.27
2022-09-23T17:15:13.420Z,6.32
2022-09-23T17:17:15.653Z,9.30
2022-09-23T17:19:17.516Z,6.18
2022-09-23T17:21:19.400Z,5.35
2022-09-23T17:23:21.313Z,5.18
2022-09-23T17:25:24.231Z,6.93
2022-09-23T17:27:27.344Z,8.27
2022-09-23T17:29:31.459Z,11.90
2022-09-23T17:31:34.958Z,9.45
2022-09-23T17:33:38.150Z,4.57
2022-09-23T17:35:41.949Z,6.10
2022-09-23T17:37:43.968Z,16.60
2022-09-23T17:39:46.414Z,5.97
2022-09-23T17:41:48.373Z,9.52
2022-09-23T17:43:58.719Z,11.63
2022-09-23T17:46:06.979Z,9.70
2022-09-23T17:48:08.886Z,10.00
2022-09-23T17:50:10.771Z,7.45
2022-09-23T17:52:13.703Z,7.82
2022-09-23T17:54:15.541Z,7.95
2022-09-23T17:56:25.550Z,11.40
2022-09-23T17:58:29.273Z,6.35
2022-09-23T18:00:31.168Z,15.15
2022-09-23T18:02:34.074Z,20.58
2022-09-23T18:04:35.963Z,14.35
2022-09-23T18:06:43.834Z,7.43
2022-09-23T18:08:48.187Z,7.72
2022-09-23T18:10:52.079Z,8.15
2022-09-23T18:12:54.975Z,8.95
2022-09-23T18:14:56.890Z,9.27
2022-09-23T18:16:58.747Z,7.03
2022-09-23T18:19:02.056Z,6.45
2022-09-23T18:21:05.377Z,6.25
2022-09-23T18:23:07.234Z,6.78
2022-09-23T18:25:22.987Z,5.90
2022-09-23T18:27:34.657Z,5.75
2022-09-23T18:29:36.530Z,5.25
2022-09-23T18:31:39.047Z,5.60
2022-09-23T18:33:44.085Z,5.65
2022-09-23T18:35:45.991Z,6.10
2022-09-23T18:37:50.596Z,5.95
2022-09-23T18:39:52.514Z,5.50
2022-09-23T18:41:56.379Z,5.65
2022-09-23T18:43:58.691Z,6.18
2022-09-23T18:46:03.063Z,5.38
2022-09-23T18:48:23.461Z,6.80
2022-09-23T18:50:44.149Z,6.03
2022-09-23T18:52:46.010Z,6.07
2022-09-23T18:54:49.869Z,5.68
2022-09-23T18:56:55.399Z,4.93
2022-09-23T18:58:57.305Z,5.30
2022-09-23T19:01:07.189Z,5.45
2022-09-23T19:03:09.230Z,4.72
2022-09-23T19:05:11.239Z,5.20
2022-09-23T19:07:13.025Z,6.03
2022-09-23T19:09:16.815Z,5.80
2022-09-23T19:11:19.205Z,5.70
2022-09-23T19:13:22.034Z,6.72
2022-09-23T19:15:23.856Z,5.40
2022-09-23T19:17:26.766Z,6.15
2022-09-23T19:19:31.843Z,6.43
2022-09-23T19:21:34.075Z,5.78
2022-09-23T19:23:36.374Z,6.63
2022-09-23T19:25:38.231Z,7.35
2022-09-23T19:27:40.415Z,7.65
2022-09-23T19:29:43.275Z,8.80
2022-09-23T19:31:46.266Z,7.50
2022-09-23T19:33:56.646Z,5.90
2022-09-23T19:35:58.746Z,5.90
2022-09-23T19:38:01.638Z,5.72
2022-09-23T19:40:07.613Z,5.47
2022-09-23T19:42:09.720Z,6.10
2022-09-23T19:44:12.314Z,6.00
2022-09-23T19:46:14.106Z,6.88
2022-09-23T19:48:16.045Z,6.53
2022-09-23T19:50:19.288Z,6.43
2022-09-23T19:52:21.131Z,6.63
2022-09-23T19:54:23.526Z,7.28
2022-09-23T19:56:26.735Z,6.97
2022-09-23T19:58:28.565Z,7.80
2022-09-23T20:00:31.865Z,7.32
2022-09-23T20:02:33.904Z,7.55
2022-09-23T20:04:35.769Z,7.32
2022-09-23T20:06:41.152Z,7.82
2022-09-23T20:08:44.564Z,8.05
2022-09-23T20:10:48.377Z,7.72
2022-09-23T20:12:50.351Z,9.07
2022-09-23T20:14:52.226Z,7.93
2022-09-23T20:16:54.932Z,8.43
2022-09-23T20:18:56.806Z,7.97
2022-09-23T20:20:58.662Z,8.07
2022-09-23T20:23:00.562Z,8.32
2022-09-23T20:25:02.802Z,8.57
2022-09-23T20:27:10.335Z,8.02
2022-09-23T20:29:12.385Z,8.43
2022-09-23T20:31:15.757Z,8.60
2022-09-23T20:33:17.664Z,8.75
2022-09-23T20:35:19.496Z,8.55
2022-09-23T20:37:21.853Z,8.48
2022-09-23T20:39:23.823Z,9.10
2022-09-23T20:41:27.078Z,8.82
2022-09-23T20:43:34.651Z,7.50
2022-09-23T20:45:36.548Z,7.45
2022-09-23T20:47:39.365Z,7.18
2022-09-23T20:49:44.108Z,7.47
2022-09-23T20:51:48.663Z,8.32
2022-09-23T20:53:53.121Z,8.70
2022-09-23T20:55:57.568Z,10.25
2022-09-23T20:58:02.325Z,11.85
2022-09-23T21:00:05.203Z,11.85
2022-09-23T21:02:11.092Z,11.65
2022-09-23T21:04:14.059Z,11.25
2022-09-23T21:06:19.127Z,12.77
2022-09-23T21:08:20.974Z,12.23
2022-09-23T21:10:22.938Z,12.05
2022-09-23T21:12:24.845Z,11.88
2022-09-23T21:14:28.665Z,10.63
2022-09-23T21:16:31.066Z,12.27
2022-09-23T21:18:33.036Z,11.00
2022-09-23T21:20:34.960Z,11.43
2022-09-23T21:22:36.941Z,11.98
2022-09-23T21:25:21.443Z,12.57
2022-09-23T21:29:02.617Z,12.55
2022-09-23T21:31:07.846Z,11.32
2022-09-23T21:33:09.722Z,11.55
2022-09-23T21:35:11.631Z,12.63
2022-09-23T21:37:13.530Z,11.95
2022-09-23T21:39:15.461Z,12.38
2022-09-23T21:41:17.970Z,11.27
2022-09-23T21:43:20.253Z,12.20
2022-09-23T21:45:22.259Z,12.40
2022-09-23T21:47:24.120Z,12.35
2022-09-23T21:49:25.986Z,13.38
2022-09-23T21:51:31.579Z,12.85
2022-09-23T21:53:36.516Z,13.30
2022-09-23T21:55:38.447Z,12.65
2022-09-23T21:57:42.453Z,13.38
2022-09-23T21:59:44.297Z,13.18
2022-09-23T22:01:51.799Z,12.95
2022-09-23T22:03:58.494Z,15.35
2022-09-23T22:06:08.710Z,14.48
2022-09-23T22:08:10.862Z,15.00
2022-09-23T22:10:12.758Z,15.25
2022-09-23T22:12:16.649Z,13.68
2022-09-23T22:14:21.777Z,14.05
2022-09-23T22:16:24.602Z,13.40
2022-09-23T22:18:26.488Z,13.43
2022-09-23T22:20:28.398Z,14.40
2022-09-23T22:22:30.596Z,13.70
2022-09-23T22:24:32.403Z,12.88
2022-09-23T22:26:42.781Z,13.55
2022-09-23T22:29:04.407Z,12.30
2022-09-23T22:31:25.098Z,13.18
2022-09-23T22:33:28.995Z,13.90
2022-09-23T22:35:30.813Z,13.43
2022-09-23T22:37:35.051Z,13.77
2022-09-23T22:39:36.937Z,13.50
2022-09-23T22:41:41.287Z,14.05
2022-09-23T22:43:43.203Z,14.63
2022-09-23T22:45:52.409Z,13.82
2022-09-23T22:47:54.345Z,15.88
2022-09-23T22:49:57.181Z,16.85
2022-09-23T22:51:59.877Z,16.67
2022-09-23T22:54:01.831Z,17.52
2022-09-23T22:56:03.826Z,17.63
2022-09-23T22:58:21.537Z,18.95
2022-09-23T23:00:29.287Z,15.95
2022-09-23T23:02:33.242Z,16.60
2022-09-23T23:04:37.288Z,15.52
2022-09-23T23:06:39.693Z,15.93
2022-09-23T23:08:41.489Z,18.58
2022-09-23T23:10:43.971Z,17.90
2022-09-23T23:12:47.121Z,16.50
2022-09-23T23:14:49.593Z,17.20
2022-09-23T23:16:51.504Z,18.10
2022-09-23T23:18:54.023Z,15.60
2022-09-23T23:20:57.162Z,17.17
2022-09-23T23:23:02.319Z,16.50
2022-09-23T23:25:05.824Z,16.33
2022-09-23T23:27:08.777Z,17.92
2022-09-23T23:29:13.002Z,18.00
2022-09-23T23:31:16.568Z,18.60
2022-09-23T23:33:18.604Z,19.23
2022-09-23T23:35:20.507Z,19.08
2022-09-23T23:37:29.635Z,19.13
2022-09-23T23:39:31.543Z,18.70
2022-09-23T23:41:34.541Z,18.40
2022-09-23T23:43:37.379Z,19.75
2022-09-23T23:45:39.275Z,21.52
2022-09-23T23:47:42.222Z,19.20
2022-09-23T23:49:44.172Z,19.38
2022-09-23T23:51:46.618Z,18.92
2022-09-23T23:53:49.139Z,20.17
2022-09-23T23:55:51.531Z,18.83
2022-09-23T23:57:53.821Z,18.63
2022-09-23T23:59:55.673Z,18.85
